createdAt,value
2018-02-15T04:00:42.373Z,16.93
2018-02-15T04:01:41.890Z,18.02
2018-02-15T04:04:25.792Z,18.64
2018-02-15T04:05:24.797Z,19.45
2018-02-15T04:06:24.784Z,18.06
2018-02-15T04:07:24.777Z,18.38
2018-02-15T04:08:27.033Z,18.86
2018-02-15T04:09:25.686Z,18.27
2018-02-15T04:10:25.695Z,18.30
2018-02-15T04:11:26.245Z,18.86
2018-02-15T04:12:25.182Z,20.34
2018-02-15T04:13:27.157Z,19.58
2018-02-15T04:14:28.256Z,19.74
2018-02-15T04:15:25.681Z,19.23
2018-02-15T04:16:25.080Z,19.00
2018-02-15T04:17:25.071Z,20.48
2018-02-15T04:18:25.307Z,19.61
2018-02-15T04:19:25.084Z,21.37
2018-02-15T04:20:25.112Z,21.15
2018-02-15T04:21:25.543Z,20.25
2018-02-15T04:22:24.611Z,19.74
2018-02-15T04:23:24.629Z,20.23
2018-02-15T04:24:24.572Z,20.59
2018-02-15T04:25:24.568Z,21.14
2018-02-15T04:26:24.559Z,20.03
2018-02-15T04:27:24.558Z,21.12
2018-02-15T04:28:24.567Z,21.97
2018-02-15T04:29:24.543Z,22.70
2018-02-15T04:30:24.513Z,23.32
2018-02-15T04:31:24.504Z,23.58
2018-02-15T04:32:24.509Z,23.25
2018-02-15T04:33:24.487Z,22.93
2018-02-15T04:34:24.473Z,22.93
2018-02-15T04:35:24.457Z,23.04
2018-02-15T04:36:24.461Z,23.82
2018-02-15T04:37:24.444Z,23.76
2018-02-15T04:38:24.427Z,23.50
2018-02-15T04:39:24.420Z,23.69
2018-02-15T04:40:24.406Z,24.02
2018-02-15T04:41:24.392Z,24.02
2018-02-15T04:42:24.376Z,24.30
2018-02-15T04:43:24.391Z,23.84
2018-02-15T04:44:24.376Z,24.65
2018-02-15T04:45:24.377Z,23.61
2018-02-15T04:46:24.350Z,23.95
2018-02-15T04:47:24.330Z,24.92
2018-02-15T04:48:24.323Z,25.81
2018-02-15T04:49:24.307Z,25.58
2018-02-15T04:50:24.312Z,26.36
2018-02-15T04:51:24.286Z,25.91
2018-02-15T04:52:24.272Z,26.47
2018-02-15T04:53:24.286Z,26.34
2018-02-15T04:54:24.252Z,26.67
2018-02-15T04:55:24.262Z,27.47
2018-02-15T04:56:24.232Z,27.34
2018-02-15T04:57:24.303Z,28.64
2018-02-15T04:58:24.235Z,28.42
2018-02-15T04:59:24.222Z,29.90
2018-02-15T05:00:24.190Z,30.68
2018-02-15T05:01:24.176Z,29.98
2018-02-15T05:02:24.192Z,30.65
2018-02-15T05:03:24.169Z,30.18
2018-02-15T05:04:24.185Z,30.18
2018-02-15T05:05:24.137Z,29.51
2018-02-15T05:06:24.146Z,30.34
2018-02-15T05:07:25.304Z,30.95
2018-02-15T05:08:24.093Z,31.55
2018-02-15T05:09:24.089Z,31.58
2018-02-15T05:10:24.106Z,32.70
2018-02-15T05:11:24.166Z,32.49
2018-02-15T05:12:24.104Z,34.26
2018-02-15T05:13:24.069Z,34.16
2018-02-15T05:14:24.037Z,34.14
2018-02-15T05:15:24.038Z,32.48
2018-02-15T05:16:24.023Z,33.66
2018-02-15T05:17:24.019Z,34.55
2018-02-15T05:18:23.993Z,35.10
2018-02-15T05:19:23.981Z,36.28
2018-02-15T05:20:23.975Z,35.15
2018-02-15T05:21:23.961Z,35.86
2018-02-15T05:22:23.949Z,36.81
2018-02-15T05:23:23.946Z,37.21
2018-02-15T05:24:23.926Z,37.22
2018-02-15T05:25:23.918Z,37.09
2018-02-15T05:26:23.910Z,37.38
2018-02-15T05:27:23.881Z,36.62
2018-02-15T05:28:23.883Z,37.21
2018-02-15T05:29:23.866Z,36.50
2018-02-15T05:30:23.884Z,35.62
2018-02-15T05:31:23.847Z,36.96
2018-02-15T05:32:23.835Z,37.29
2018-02-15T05:33:23.822Z,36.50
2018-02-15T05:34:23.813Z,37.03
2018-02-15T05:35:23.800Z,37.82
2018-02-15T05:36:23.804Z,37.30
2018-02-15T05:37:23.772Z,37.91
2018-02-15T05:38:23.776Z,37.80
2018-02-15T05:39:23.747Z,36.14
2018-02-15T05:40:23.744Z,37.06
2018-02-15T05:41:23.734Z,37.50
2018-02-15T05:42:23.712Z,37.48
2018-02-15T05:43:23.709Z,36.34
2018-02-15T05:44:23.698Z,36.59
2018-02-15T05:45:23.684Z,37.71
2018-02-15T05:46:23.666Z,37.62
2018-02-15T05:47:23.678Z,38.20
2018-02-15T05:48:23.658Z,37.93
2018-02-15T05:49:23.641Z,38.18
2018-02-15T05:50:23.638Z,37.18
2018-02-15T05:51:23.617Z,36.89
2018-02-15T05:52:23.631Z,35.88
2018-02-15T05:53:23.589Z,37.16
2018-02-15T05:54:23.596Z,36.64
2018-02-15T05:55:23.610Z,34.45
2018-02-15T05:56:23.568Z,36.76
2018-02-15T05:57:23.562Z,37.02
2018-02-15T05:58:23.536Z,37.36
2018-02-15T05:59:23.538Z,36.48
2018-02-15T06:00:23.515Z,36.76
2018-02-15T06:01:23.513Z,37.14
2018-02-15T06:02:23.496Z,37.31
2018-02-15T06:03:23.480Z,38.02
2018-02-15T06:04:23.473Z,36.58
2018-02-15T06:05:23.454Z,37.30
2018-02-15T06:06:23.483Z,34.68
2018-02-15T06:07:23.450Z,33.30
2018-02-15T06:08:23.438Z,35.72
2018-02-15T06:09:23.424Z,35.91
2018-02-15T06:10:23.417Z,36.16
2018-02-15T06:11:23.407Z,34.78
2018-02-15T06:12:23.391Z,34.65
2018-02-15T06:13:23.379Z,34.50
2018-02-15T06:14:23.374Z,33.44
2018-02-15T06:15:23.358Z,33.68
2018-02-15T06:16:23.365Z,32.74
2018-02-15T06:17:23.341Z,33.01
2018-02-15T06:18:23.340Z,32.70
2018-02-15T06:19:23.314Z,34.45
2018-02-15T06:20:23.313Z,33.06
2018-02-15T06:21:23.286Z,33.43
2018-02-15T06:22:23.285Z,33.03
2018-02-15T06:23:23.262Z,30.98
2018-02-15T06:24:23.262Z,30.80
2018-02-15T06:25:23.247Z,31.80
2018-02-15T06:26:23.231Z,30.50
2018-02-15T06:27:23.219Z,29.99
2018-02-15T06:28:23.209Z,29.55
2018-02-15T06:29:23.204Z,29.84
2018-02-15T06:30:23.190Z,31.82
2018-02-15T06:31:23.177Z,30.49
2018-02-15T06:32:23.167Z,29.82
2018-02-15T06:33:23.153Z,30.43
2018-02-15T06:34:23.144Z,29.89
2018-02-15T06:35:23.148Z,28.47
2018-02-15T06:36:23.121Z,29.34
2018-02-15T06:37:23.110Z,33.55
2018-02-15T06:38:23.099Z,32.00
2018-02-15T06:39:23.088Z,29.40
2018-02-15T06:40:23.068Z,28.25
2018-02-15T06:41:23.072Z,27.97
2018-02-15T06:42:23.049Z,28.03
2018-02-15T06:43:23.049Z,27.11
2018-02-15T06:44:23.036Z,28.19
2018-02-15T06:45:23.024Z,27.94
2018-02-15T06:46:23.011Z,26.40
2018-02-15T06:47:23.007Z,27.32
2018-02-15T06:48:23.016Z,26.85
2018-02-15T06:49:22.978Z,27.98
2018-02-15T06:50:22.976Z,27.34
2018-02-15T06:51:22.969Z,27.16
2018-02-15T06:52:22.945Z,27.78
2018-02-15T06:53:22.933Z,27.39
2018-02-15T06:54:22.922Z,28.34
2018-02-15T06:55:22.913Z,28.74
2018-02-15T06:56:22.899Z,27.32
2018-02-15T06:57:22.886Z,27.53
2018-02-15T06:58:22.894Z,27.70
2018-02-15T06:59:22.858Z,27.96
2018-02-15T07:00:22.859Z,25.98
2018-02-15T07:01:22.841Z,27.37
2018-02-15T07:02:22.848Z,27.74
2018-02-15T07:03:22.841Z,27.10
2018-02-15T07:04:22.811Z,27.46
2018-02-15T07:05:22.799Z,28.57
2018-02-15T07:06:22.787Z,27.11
2018-02-15T07:07:22.775Z,28.03
2018-02-15T07:08:22.789Z,26.57
2018-02-15T07:09:22.756Z,26.82
2018-02-15T07:10:22.743Z,27.92
2018-02-15T07:11:22.736Z,26.78
2018-02-15T07:12:22.725Z,27.87
2018-02-15T07:13:22.715Z,27.24
2018-02-15T07:14:22.704Z,28.59
2018-02-15T07:15:22.686Z,28.71
2018-02-15T07:16:22.681Z,28.65
2018-02-15T07:17:22.665Z,27.99
2018-02-15T07:18:22.652Z,27.75
2018-02-15T07:19:22.643Z,28.53
2018-02-15T07:20:22.636Z,28.51
2018-02-15T07:21:22.619Z,27.34
2018-02-15T07:22:22.610Z,26.70
2018-02-15T07:23:22.598Z,27.24
2018-02-15T07:24:22.591Z,27.32
2018-02-15T07:25:22.583Z,28.07
2018-02-15T07:26:22.567Z,27.80
2018-02-15T07:27:22.557Z,27.96
2018-02-15T07:28:22.541Z,27.09
2018-02-15T07:29:22.530Z,27.49
2018-02-15T07:30:22.526Z,27.52
2018-02-15T07:31:22.507Z,28.05
2018-02-15T07:32:22.500Z,28.85
2018-02-15T07:33:22.489Z,28.30
2018-02-15T07:34:22.479Z,27.21
2018-02-15T07:35:22.467Z,27.56
2018-02-15T07:36:22.487Z,28.24
2018-02-15T07:37:22.452Z,26.92
2018-02-15T07:38:22.435Z,27.35
2018-02-15T07:39:22.424Z,27.58
2018-02-15T07:40:22.430Z,26.90
2018-02-15T07:41:22.406Z,28.05
2018-02-15T07:42:22.391Z,27.82
2018-02-15T07:43:22.379Z,27.50
2018-02-15T07:44:22.389Z,26.69
2018-02-15T07:45:22.357Z,27.34
2018-02-15T07:46:22.346Z,27.95
2018-02-15T07:47:22.333Z,27.64
2018-02-15T07:48:22.317Z,26.94
2018-02-15T07:49:22.309Z,27.17
2018-02-15T07:50:22.298Z,26.93
2018-02-15T07:51:22.291Z,28.01
2018-02-15T07:52:22.279Z,28.25
2018-02-15T07:53:22.261Z,28.41
2018-02-15T07:54:22.257Z,31.02
2018-02-15T07:55:22.254Z,31.24
2018-02-15T07:56:22.237Z,30.64
2018-02-15T07:57:22.227Z,29.27
2018-02-15T07:58:22.212Z,26.87
2018-02-15T07:59:22.192Z,28.66
2018-02-15T08:00:22.201Z,27.97
2018-02-15T08:01:22.176Z,28.10
2018-02-15T08:02:22.162Z,26.51
2018-02-15T08:03:22.164Z,27.68
2018-02-15T08:04:22.145Z,28.95
2018-02-15T08:05:22.143Z,29.90
2018-02-15T08:06:22.125Z,28.88
2018-02-15T08:07:22.110Z,28.57
2018-02-15T08:08:22.100Z,28.79
2018-02-15T08:09:22.091Z,28.93
2018-02-15T08:10:22.080Z,30.07
2018-02-15T08:11:22.068Z,28.68
2018-02-15T08:12:22.056Z,30.32
2018-02-15T08:13:22.047Z,28.96
2018-02-15T08:14:22.055Z,28.03
2018-02-15T08:15:22.023Z,29.58
2018-02-15T08:16:22.020Z,28.02
2018-02-15T08:17:22.002Z,27.64
2018-02-15T08:18:21.996Z,26.85
2018-02-15T08:19:21.985Z,26.56
2018-02-15T08:20:21.973Z,27.39
2018-02-15T08:21:21.957Z,27.62
2018-02-15T08:22:21.954Z,27.36
2018-02-15T08:23:21.942Z,27.63
2018-02-15T08:24:21.921Z,26.26
2018-02-15T08:25:21.917Z,27.14
2018-02-15T08:26:21.904Z,26.06
2018-02-15T08:27:21.892Z,25.96
2018-02-15T08:28:21.880Z,26.92
2018-02-15T08:29:21.870Z,26.64
2018-02-15T08:30:21.860Z,27.69
2018-02-15T08:31:21.851Z,28.82
2018-02-15T08:32:21.848Z,27.89
2018-02-15T08:33:21.823Z,26.11
2018-02-15T08:34:21.818Z,27.25
2018-02-15T08:35:21.805Z,27.57
2018-02-15T08:36:21.795Z,28.49
2018-02-15T08:37:21.784Z,28.03
2018-02-15T08:38:21.776Z,27.93
2018-02-15T08:39:21.765Z,26.95
2018-02-15T08:40:21.751Z,28.96
2018-02-15T08:41:21.745Z,26.75
2018-02-15T08:42:21.744Z,27.80
2018-02-15T08:43:21.720Z,27.10
2018-02-15T08:44:21.756Z,26.55
2018-02-15T08:45:21.700Z,26.90
2018-02-15T08:46:21.688Z,25.91
2018-02-15T08:47:21.678Z,24.98
2018-02-15T08:48:21.669Z,25.92
2018-02-15T08:49:21.658Z,27.98
2018-02-15T08:50:21.647Z,25.82
2018-02-15T08:51:21.638Z,26.00
2018-02-15T08:52:21.642Z,26.61
2018-02-15T08:53:21.616Z,26.73
2018-02-15T08:54:21.605Z,27.87
2018-02-15T08:55:21.593Z,26.90
2018-02-15T08:56:21.587Z,26.58
2018-02-15T08:57:21.577Z,26.73
2018-02-15T08:58:21.576Z,26.66
2018-02-15T08:59:21.551Z,27.00
2018-02-15T09:00:21.537Z,26.21
2018-02-15T09:01:21.546Z,26.52
2018-02-15T09:02:21.518Z,26.05
2018-02-15T09:03:21.512Z,26.08
2018-02-15T09:04:21.500Z,27.30
2018-02-15T09:05:21.490Z,26.68
2018-02-15T09:06:21.476Z,26.86
2018-02-15T09:07:21.461Z,27.33
2018-02-15T09:08:21.456Z,25.38
2018-02-15T09:09:21.497Z,25.37
2018-02-15T09:10:21.442Z,26.64
2018-02-15T09:11:21.425Z,26.60
2018-02-15T09:12:21.415Z,25.72
2018-02-15T09:13:21.405Z,25.78
2018-02-15T09:14:21.391Z,25.54
2018-02-15T09:15:21.381Z,25.14
2018-02-15T09:16:21.389Z,25.56
2018-02-15T09:17:21.385Z,26.00
2018-02-15T09:18:21.357Z,25.83
2018-02-15T09:19:21.351Z,25.03
2018-02-15T09:20:21.325Z,24.61
2018-02-15T09:21:21.320Z,23.88
2018-02-15T09:22:21.315Z,25.25
2018-02-15T09:23:21.298Z,25.08
2018-02-15T09:24:21.290Z,24.56
2018-02-15T09:25:21.280Z,25.77
2018-02-15T09:26:21.266Z,25.43
2018-02-15T09:27:21.262Z,25.36
2018-02-15T09:28:21.242Z,25.36
2018-02-15T09:29:21.235Z,24.88
2018-02-15T09:30:21.227Z,25.44
2018-02-15T09:31:21.217Z,24.62
2018-02-15T09:32:21.207Z,24.26
2018-02-15T09:33:21.198Z,25.16
2018-02-15T09:34:21.184Z,25.04
2018-02-15T09:35:21.178Z,24.44
2018-02-15T09:36:21.162Z,24.78
2018-02-15T09:37:21.152Z,24.52
2018-02-15T09:38:21.145Z,24.23
2018-02-15T09:39:21.133Z,24.89
2018-02-15T09:40:21.127Z,24.44
2018-02-15T09:41:21.115Z,24.16
2018-02-15T09:42:21.104Z,24.05
2018-02-15T09:43:21.107Z,25.41
2018-02-15T09:44:21.086Z,25.13
2018-02-15T09:45:21.075Z,25.08
2018-02-15T09:46:21.072Z,25.20
2018-02-15T09:47:21.052Z,25.44
2018-02-15T09:48:21.042Z,24.91
2018-02-15T09:49:21.042Z,25.29
2018-02-15T09:50:21.028Z,24.67
2018-02-15T09:51:21.028Z,25.34
2018-02-15T09:52:21.009Z,25.69
2018-02-15T09:53:21.000Z,25.56
2018-02-15T09:54:20.991Z,25.85
2018-02-15T09:55:20.976Z,24.40
2018-02-15T09:56:20.968Z,24.85
2018-02-15T09:57:20.958Z,24.19
2018-02-15T09:58:20.947Z,24.90
2018-02-15T09:59:20.941Z,25.28
2018-02-15T10:00:20.931Z,25.60
2018-02-15T10:01:20.919Z,25.16
2018-02-15T10:02:20.911Z,24.47
2018-02-15T10:03:20.900Z,24.76
2018-02-15T10:04:20.903Z,24.90
2018-02-15T10:05:20.885Z,24.19
2018-02-15T10:06:20.879Z,24.81
2018-02-15T10:07:20.856Z,24.73
2018-02-15T10:08:20.854Z,24.48
2018-02-15T10:09:20.849Z,24.45
2018-02-15T10:10:20.826Z,24.20
2018-02-15T10:11:20.823Z,25.18
2018-02-15T10:12:20.814Z,25.49
2018-02-15T10:13:20.818Z,24.86
2018-02-15T10:14:20.796Z,24.94
2018-02-15T10:15:20.790Z,24.34
2018-02-15T10:16:20.775Z,24.42
2018-02-15T10:17:20.767Z,24.23
2018-02-15T10:18:20.755Z,24.18
2018-02-15T10:19:20.748Z,24.56
2018-02-15T10:20:20.749Z,24.41
2018-02-15T10:21:20.729Z,24.66
2018-02-15T10:22:20.718Z,24.24
2018-02-15T10:23:20.702Z,24.65
2018-02-15T10:24:20.698Z,24.18
2018-02-15T10:25:20.686Z,24.14
2018-02-15T10:26:20.683Z,24.34
2018-02-15T10:27:20.672Z,24.44
2018-02-15T10:28:20.659Z,23.36
2018-02-15T10:29:20.681Z,23.22
2018-02-15T10:30:20.645Z,22.95
2018-02-15T10:31:20.630Z,24.22
2018-02-15T10:32:20.625Z,23.81
2018-02-15T10:33:20.622Z,23.24
2018-02-15T10:34:20.604Z,22.73
2018-02-15T10:35:20.600Z,23.54
2018-02-15T10:36:20.594Z,24.39
2018-02-15T10:37:20.570Z,24.19
2018-02-15T10:38:20.563Z,24.46
2018-02-15T10:39:20.556Z,23.14
2018-02-15T10:40:20.542Z,22.48
2018-02-15T10:41:20.538Z,23.05
2018-02-15T10:42:20.525Z,23.98
2018-02-15T10:43:20.529Z,23.38
2018-02-15T10:44:20.513Z,23.97
2018-02-15T10:45:20.499Z,23.46
2018-02-15T10:46:20.488Z,23.12
2018-02-15T10:47:20.493Z,23.64
2018-02-15T10:48:20.470Z,24.00
2018-02-15T10:49:20.459Z,24.11
2018-02-15T10:50:20.448Z,23.17
2018-02-15T10:51:20.435Z,22.38
2018-02-15T10:52:20.432Z,22.98
2018-02-15T10:53:20.418Z,23.22
2018-02-15T10:54:20.405Z,22.09
2018-02-15T10:55:20.399Z,22.62
2018-02-15T10:56:20.390Z,21.79
2018-02-15T10:57:20.388Z,21.96
2018-02-15T10:58:20.369Z,23.22
2018-02-15T10:59:20.361Z,22.28
2018-02-15T11:00:20.351Z,22.80
2018-02-15T11:01:20.341Z,22.80
2018-02-15T11:02:20.330Z,22.83
2018-02-15T11:03:20.324Z,21.70
2018-02-15T11:04:20.309Z,21.51
2018-02-15T11:05:20.302Z,22.00
2018-02-15T11:06:20.288Z,22.48
2018-02-15T11:07:20.279Z,21.95
2018-02-15T11:08:20.287Z,22.09
2018-02-15T11:09:20.256Z,21.56
2018-02-15T11:10:20.249Z,22.21
2018-02-15T11:11:20.244Z,21.76
2018-02-15T11:12:20.235Z,21.84
2018-02-15T11:13:20.229Z,21.14
2018-02-15T11:14:20.212Z,22.94
2018-02-15T11:15:20.209Z,22.72
2018-02-15T11:16:20.187Z,22.15
2018-02-15T11:17:20.183Z,22.00
2018-02-15T11:18:20.172Z,22.58
2018-02-15T11:19:20.164Z,22.55
2018-02-15T11:20:20.152Z,21.64
2018-02-15T11:21:20.143Z,21.48
2018-02-15T11:22:20.133Z,21.78
2018-02-15T11:23:20.125Z,21.79
2018-02-15T11:24:20.117Z,21.24
2018-02-15T11:25:20.108Z,21.00
2018-02-15T11:26:20.096Z,21.94
2018-02-15T11:27:20.093Z,21.78
2018-02-15T11:28:20.088Z,21.08
2018-02-15T11:29:20.068Z,21.17
2018-02-15T11:30:20.066Z,21.39
2018-02-15T11:31:20.041Z,21.03
2018-02-15T11:32:20.038Z,21.10
2018-02-15T11:33:20.028Z,22.42
2018-02-15T11:34:20.022Z,21.98
2018-02-15T11:35:20.009Z,21.86
2018-02-15T11:36:20.001Z,21.38
2018-02-15T11:37:19.991Z,21.71
2018-02-15T11:38:19.977Z,21.17
2018-02-15T11:39:19.999Z,21.33
2018-02-15T11:40:19.983Z,21.72
2018-02-15T11:41:19.961Z,21.52
2018-02-15T11:42:19.957Z,21.08
2018-02-15T11:43:19.933Z,21.54
2018-02-15T11:44:19.934Z,21.15
2018-02-15T11:45:19.911Z,21.27
2018-02-15T11:46:19.909Z,21.91
2018-02-15T11:47:19.897Z,21.24
2018-02-15T11:48:19.886Z,21.04
2018-02-15T11:49:19.880Z,20.43
2018-02-15T11:50:19.864Z,20.73
2018-02-15T11:51:19.865Z,20.36
2018-02-15T11:52:19.848Z,20.30
2018-02-15T11:53:19.835Z,20.70
2018-02-15T11:54:19.829Z,20.47
2018-02-15T11:55:19.819Z,19.35
2018-02-15T11:56:19.810Z,20.55
2018-02-15T11:57:19.796Z,20.72
2018-02-15T11:58:19.794Z,20.98
2018-02-15T11:59:19.786Z,20.31
2018-02-15T12:00:19.768Z,20.61
2018-02-15T12:01:19.772Z,22.36
2018-02-15T12:02:19.761Z,20.66
2018-02-15T12:03:19.747Z,20.64
2018-02-15T12:04:19.725Z,20.93
2018-02-15T12:05:19.724Z,20.27
2018-02-15T12:06:19.710Z,19.93
2018-02-15T12:07:19.695Z,20.63
2018-02-15T12:08:19.694Z,20.37
2018-02-15T12:09:19.691Z,21.03
2018-02-15T12:10:19.668Z,20.09
2018-02-15T12:11:19.660Z,19.96
2018-02-15T12:12:19.693Z,19.85
2018-02-15T12:13:19.690Z,19.90
2018-02-15T12:14:19.638Z,20.02
2018-02-15T12:15:19.620Z,19.32
2018-02-15T12:16:19.620Z,19.28
2018-02-15T12:17:19.602Z,18.88
2018-02-15T12:18:19.614Z,18.64
2018-02-15T12:19:19.609Z,18.68
2018-02-15T12:20:19.584Z,18.94
2018-02-15T12:21:19.573Z,18.27
2018-02-15T12:22:19.564Z,17.57
2018-02-15T12:23:19.568Z,17.96
2018-02-15T12:24:19.557Z,18.35
2018-02-15T12:25:19.556Z,18.50
2018-02-15T12:26:19.529Z,18.50
2018-02-15T12:27:19.520Z,19.11
2018-02-15T12:28:19.514Z,18.93
2018-02-15T12:29:19.498Z,18.97
2018-02-15T12:30:19.492Z,18.54
2018-02-15T12:31:19.479Z,19.46
2018-02-15T12:32:19.482Z,18.54
2018-02-15T12:33:19.464Z,18.32
2018-02-15T12:34:19.455Z,18.61
2018-02-15T12:35:19.454Z,18.67
2018-02-15T12:36:19.447Z,18.01
2018-02-15T12:37:19.430Z,18.44
2018-02-15T12:38:19.453Z,18.74
2018-02-15T12:39:19.431Z,17.99
2018-02-15T12:40:19.405Z,18.97
2018-02-15T12:41:19.412Z,18.34
2018-02-15T12:42:19.409Z,17.88
2018-02-15T12:43:19.379Z,18.05
2018-02-15T12:44:19.384Z,17.76
2018-02-15T12:45:19.355Z,18.24
2018-02-15T12:46:19.371Z,18.07
2018-02-15T12:47:19.330Z,18.52
2018-02-15T12:48:19.352Z,18.56
2018-02-15T12:49:19.335Z,17.99
2018-02-15T12:50:19.318Z,18.03
2018-02-15T12:51:19.310Z,18.49
2018-02-15T12:52:19.296Z,18.16
2018-02-15T12:53:19.288Z,18.68
2018-02-15T12:54:19.281Z,17.64
2018-02-15T12:55:19.271Z,17.50
2018-02-15T12:56:19.279Z,17.45
2018-02-15T12:57:19.248Z,17.17
2018-02-15T12:58:19.247Z,17.54
2018-02-15T12:59:19.234Z,17.41
2018-02-15T13:00:19.224Z,17.87
2018-02-15T13:01:19.220Z,17.36
2018-02-15T13:02:19.220Z,17.87
2018-02-15T13:03:19.199Z,17.36
2018-02-15T13:04:19.198Z,17.84
2018-02-15T13:05:19.184Z,17.28
2018-02-15T13:06:19.186Z,18.30
2018-02-15T13:07:19.173Z,17.16
2018-02-15T13:08:19.161Z,17.46
2018-02-15T13:09:19.153Z,17.58
2018-02-15T13:10:19.170Z,17.04
2018-02-15T13:11:19.135Z,17.16
2018-02-15T13:12:19.126Z,16.85
2018-02-15T13:13:19.110Z,17.48
2018-02-15T13:14:19.157Z,17.41
2018-02-15T13:15:19.099Z,16.40
2018-02-15T13:16:19.097Z,16.16
2018-02-15T13:17:19.083Z,16.74
2018-02-15T13:18:19.074Z,18.67
2018-02-15T13:19:19.066Z,18.41
2018-02-15T13:20:19.057Z,17.32
2018-02-15T13:21:19.042Z,16.83
2018-02-15T13:22:19.064Z,17.24
2018-02-15T13:23:19.034Z,17.22
2018-02-15T13:24:19.025Z,16.13
2018-02-15T13:25:19.013Z,16.48
2018-02-15T13:26:19.000Z,16.22
2018-02-15T13:27:18.996Z,16.41
2018-02-15T13:28:18.987Z,16.54
2018-02-15T13:29:18.981Z,18.77
2018-02-15T13:30:18.969Z,17.64
2018-02-15T13:31:18.969Z,17.13
2018-02-15T13:32:18.958Z,17.35
2018-02-15T13:33:18.959Z,17.81
2018-02-15T13:34:18.933Z,17.62
2018-02-15T13:35:18.923Z,16.97
2018-02-15T13:36:18.932Z,16.67
2018-02-15T13:37:18.933Z,16.39
2018-02-15T13:38:18.894Z,16.05
2018-02-15T13:39:18.891Z,16.60
2018-02-15T13:40:18.892Z,17.52
2018-02-15T13:41:18.877Z,18.58
2018-02-15T13:42:18.868Z,20.09
2018-02-15T13:43:18.854Z,18.51
2018-02-15T13:44:18.878Z,18.42
2018-02-15T13:45:18.841Z,20.44
2018-02-15T13:46:18.837Z,17.82
2018-02-15T13:47:18.825Z,19.80
2018-02-15T13:48:18.839Z,17.78
2018-02-15T13:49:18.810Z,18.50
2018-02-15T13:50:18.806Z,18.92
2018-02-15T13:51:18.783Z,19.64
2018-02-15T13:52:18.780Z,18.25
2018-02-15T13:53:18.774Z,18.52
2018-02-15T13:53:30.776Z,0.77
2018-02-15T13:55:18.755Z,19.95
2018-02-15T13:56:18.792Z,19.08
2018-02-15T13:57:18.742Z,17.43
2018-02-15T13:58:18.751Z,17.38
2018-02-15T13:59:18.721Z,17.35
2018-02-15T14:00:18.714Z,16.50
2018-02-15T14:01:18.706Z,18.71
2018-02-15T14:02:18.707Z,20.98
2018-02-15T14:03:18.686Z,19.08
2018-02-15T14:04:18.678Z,20.86
2018-02-15T14:05:18.669Z,19.36
2018-02-15T14:06:18.654Z,19.46
2018-02-15T14:07:18.655Z,19.00
2018-02-15T14:08:18.666Z,20.46
2018-02-15T14:09:18.641Z,23.77
2018-02-15T14:10:18.621Z,23.78
2018-02-15T14:11:18.624Z,20.36
2018-02-15T14:12:18.638Z,18.12
2018-02-15T14:13:18.598Z,18.18
2018-02-15T14:14:18.590Z,27.22
2018-02-15T14:15:18.587Z,25.28
2018-02-15T14:16:18.579Z,19.20
2018-02-15T14:17:18.567Z,18.09
2018-02-15T14:18:18.558Z,18.46
2018-02-15T14:19:18.552Z,18.19
2018-02-15T14:20:18.548Z,17.94
2018-02-15T14:21:18.524Z,17.74
2018-02-15T14:22:18.525Z,18.74
2018-02-15T14:23:18.535Z,22.70
2018-02-15T14:24:18.514Z,25.39
2018-02-15T14:25:18.521Z,22.34
2018-02-15T14:26:18.490Z,21.65
2018-02-15T14:27:18.485Z,20.48
2018-02-15T14:28:18.467Z,21.28
2018-02-15T14:29:18.462Z,20.54
2018-02-15T14:30:18.452Z,20.52
2018-02-15T14:31:18.444Z,19.07
2018-02-15T14:32:18.441Z,18.98
2018-02-15T14:33:18.424Z,19.47
2018-02-15T14:34:18.415Z,19.24
2018-02-15T14:35:18.404Z,18.56
2018-02-15T14:36:18.400Z,19.26
2018-02-15T14:37:18.400Z,19.02
2018-02-15T14:38:18.397Z,19.00
2018-02-15T14:39:18.375Z,18.76
2018-02-15T14:40:18.368Z,18.67
2018-02-15T14:41:18.354Z,18.52
2018-02-15T14:42:18.352Z,17.86
2018-02-15T14:43:18.347Z,18.35
2018-02-15T14:44:18.344Z,18.13
2018-02-15T14:45:18.346Z,18.45
2018-02-15T14:46:18.306Z,18.18
2018-02-15T14:47:18.320Z,17.27
2018-02-15T14:48:18.300Z,17.84
2018-02-15T14:49:18.291Z,17.94
2018-02-15T14:50:18.286Z,17.40
2018-02-15T14:51:18.300Z,18.06
2018-02-15T14:52:18.263Z,18.54
2018-02-15T14:53:18.252Z,17.56
2018-02-15T14:54:18.242Z,18.03
2018-02-15T14:55:18.234Z,17.90
2018-02-15T14:56:18.248Z,17.60
2018-02-15T14:57:18.224Z,18.24
2018-02-15T14:58:18.220Z,17.50
2018-02-15T14:59:18.198Z,17.83
2018-02-15T15:00:18.185Z,18.17
2018-02-15T15:01:18.185Z,18.30
2018-02-15T15:02:18.178Z,18.41
2018-02-15T15:03:18.176Z,18.74
2018-02-15T15:04:18.178Z,18.12
2018-02-15T15:05:18.181Z,17.45
2018-02-15T15:06:18.152Z,17.20
2018-02-15T15:07:18.136Z,17.27
2018-02-15T15:08:18.128Z,16.91
2018-02-15T15:09:18.116Z,16.66
2018-02-15T15:10:18.121Z,16.52
2018-02-15T15:11:18.106Z,16.98
2018-02-15T15:12:18.093Z,16.79
2018-02-15T15:13:18.094Z,16.44
2018-02-15T15:14:18.070Z,16.53
2018-02-15T15:15:18.061Z,16.88
2018-02-15T15:16:18.053Z,16.26
2018-02-15T15:17:18.046Z,16.33
2018-02-15T15:18:18.062Z,16.24
2018-02-15T15:19:18.032Z,15.86
2018-02-15T15:20:18.020Z,16.47
2018-02-15T15:21:18.015Z,16.47
2018-02-15T15:22:18.016Z,17.92
2018-02-15T15:23:18.016Z,18.14
2018-02-15T15:24:17.991Z,18.96
2018-02-15T15:25:17.986Z,17.99
2018-02-15T15:26:17.974Z,17.42
2018-02-15T15:27:17.964Z,16.57
2018-02-15T15:28:17.981Z,16.90
2018-02-15T15:29:17.945Z,17.50
2018-02-15T15:30:17.957Z,17.64
2018-02-15T15:31:17.932Z,16.92
2018-02-15T15:32:17.936Z,16.66
2018-02-15T15:33:17.913Z,17.65
2018-02-15T15:34:17.903Z,16.88
2018-02-15T15:35:17.897Z,17.24
2018-02-15T15:36:17.892Z,16.99
2018-02-15T15:37:17.877Z,16.92
2018-02-15T15:38:17.893Z,17.44
2018-02-15T15:39:17.862Z,17.83
2018-02-15T15:40:17.853Z,18.07
2018-02-15T15:41:17.867Z,18.17
2018-02-15T15:42:17.837Z,18.86
2018-02-15T15:43:17.836Z,19.53
2018-02-15T15:44:17.816Z,19.60
2018-02-15T15:45:17.822Z,19.60
2018-02-15T15:46:17.816Z,19.55
2018-02-15T15:47:17.798Z,18.93
2018-02-15T15:48:17.787Z,19.61
2018-02-15T15:49:17.780Z,20.15
2018-02-15T15:50:17.768Z,19.44
2018-02-15T15:51:17.778Z,19.00
2018-02-15T15:52:17.769Z,20.10
2018-02-15T15:53:17.746Z,20.40
2018-02-15T15:54:17.739Z,19.67
2018-02-15T15:55:17.727Z,19.97
2018-02-15T15:56:17.721Z,20.28
2018-02-15T15:57:17.707Z,20.14
2018-02-15T15:58:17.706Z,19.71
2018-02-15T15:59:17.688Z,19.12
2018-02-15T16:00:17.708Z,19.12
2018-02-15T16:01:17.670Z,19.78
2018-02-15T16:02:17.664Z,19.39
2018-02-15T16:03:17.664Z,18.27
2018-02-15T16:04:17.658Z,17.95
2018-02-15T16:05:17.647Z,16.86
2018-02-15T16:06:17.634Z,16.88
2018-02-15T16:07:17.631Z,17.11
2018-02-15T16:08:17.640Z,17.22
2018-02-15T16:09:17.606Z,15.80
2018-02-15T16:10:17.602Z,15.52
2018-02-15T16:11:17.591Z,15.25
2018-02-15T16:12:17.583Z,15.88
2018-02-15T16:13:17.577Z,15.50
2018-02-15T16:14:17.569Z,14.93
2018-02-15T16:15:17.556Z,14.17
2018-02-15T16:16:17.546Z,14.72
2018-02-15T16:17:17.553Z,14.49
2018-02-15T16:18:17.537Z,14.28
2018-02-15T16:19:17.538Z,13.01
2018-02-15T16:20:17.521Z,13.08
2018-02-15T16:21:17.511Z,13.04
2018-02-15T16:22:17.502Z,13.19
2018-02-15T16:23:17.492Z,13.15
2018-02-15T16:24:17.511Z,12.77
2018-02-15T16:25:17.473Z,11.84
2018-02-15T16:26:17.463Z,12.19
2018-02-15T16:27:17.479Z,12.31
2018-02-15T16:28:17.458Z,12.24
2018-02-15T16:29:17.461Z,12.14
2018-02-15T16:30:17.425Z,11.68
2018-02-15T16:31:17.423Z,11.37
2018-02-15T16:32:17.416Z,10.75
2018-02-15T16:33:17.405Z,11.55
2018-02-15T16:34:17.398Z,11.09
2018-02-15T16:35:17.403Z,11.16
2018-02-15T16:36:17.386Z,10.52
2018-02-15T16:37:17.372Z,9.75
2018-02-15T16:38:17.357Z,10.52
2018-02-15T16:39:17.354Z,10.20
2018-02-15T16:40:17.344Z,12.81
2018-02-15T16:41:17.332Z,14.11
2018-02-15T16:42:17.346Z,15.06
2018-02-15T16:43:17.320Z,14.48
2018-02-15T16:44:17.322Z,14.70
2018-02-15T16:45:17.314Z,15.00
2018-02-15T16:46:17.324Z,14.57
2018-02-15T16:47:17.305Z,14.66
2018-02-15T16:48:17.286Z,15.28
2018-02-15T16:49:17.281Z,15.36
2018-02-15T16:50:17.267Z,15.57
2018-02-15T16:51:17.258Z,15.88
2018-02-15T16:52:17.241Z,15.94
2018-02-15T16:53:17.247Z,16.43
2018-02-15T16:54:17.232Z,15.80